sensor_id;sensor_type;location;lat;lon;timestamp;P1;durP1;ratioP1;P2;durP2;ratioP2
30934;SDS011;51033;42.648;23.292;2022-08-21T00:00:54;6.22;;;3.45;;
30934;SDS011;51033;42.648;23.292;2022-08-21T00:03:19;5.07;;;2.75;;
30934;SDS011;51033;42.648;23.292;2022-08-21T00:05:46;5.72;;;3.03;;
30934;SDS011;51033;42.648;23.292;2022-08-21T00:08:15;5.15;;;2.75;;
30934;SDS011;51033;42.648;23.292;2022-08-21T00:10:44;5.88;;;2.92;;
30934;SDS011;51033;42.648;23.292;2022-08-21T00:13:11;5.05;;;2.88;;
30934;SDS011;51033;42.648;23.292;2022-08-21T00:15:37;5.47;;;2.58;;
30934;SDS011;51033;42.648;23.292;2022-08-21T00:18:04;6.85;;;2.78;;
30934;SDS011;51033;42.648;23.292;2022-08-21T00:20:35;5.80;;;2.78;;
30934;SDS011;51033;42.648;23.292;2022-08-21T00:23:01;4.93;;;3.13;;
30934;SDS011;51033;42.648;23.292;2022-08-21T00:25:28;3.03;;;2.25;;
30934;SDS011;51033;42.648;23.292;2022-08-21T00:27:55;6.93;;;2.40;;
30934;SDS011;51033;42.648;23.292;2022-08-21T00:30:21;4.25;;;3.08;;
30934;SDS011;51033;42.648;23.292;2022-08-21T00:32:49;4.50;;;2.80;;
30934;SDS011;51033;42.648;23.292;2022-08-21T00:35:17;6.78;;;2.60;;
30934;SDS011;51033;42.648;23.292;2022-08-21T00:37:44;5.78;;;2.63;;
30934;SDS011;51033;42.648;23.292;2022-08-21T00:40:12;4.68;;;3.13;;
30934;SDS011;51033;42.648;23.292;2022-08-21T00:42:44;5.28;;;2.67;;
30934;SDS011;51033;42.648;23.292;2022-08-21T00:45:13;3.95;;;2.78;;
30934;SDS011;51033;42.648;23.292;2022-08-21T00:47:39;7.00;;;3.00;;
30934;SDS011;51033;42.648;23.292;2022-08-21T00:50:07;7.72;;;2.45;;
30934;SDS011;51033;42.648;23.292;2022-08-21T00:52:34;3.85;;;1.80;;
30934;SDS011;51033;42.648;23.292;2022-08-21T00:55:03;2.88;;;1.90;;
30934;SDS011;51033;42.648;23.292;2022-08-21T00:57:33;5.65;;;2.15;;
30934;SDS011;51033;42.648;23.292;2022-08-21T01:00:11;5.65;;;2.15;;
30934;SDS011;51033;42.648;23.292;2022-08-21T01:02:43;2.72;;;1.92;;
30934;SDS011;51033;42.648;23.292;2022-08-21T01:05:10;4.45;;;1.92;;
30934;SDS011;51033;42.648;23.292;2022-08-21T01:07:36;3.65;;;1.98;;
30934;SDS011;51033;42.648;23.292;2022-08-21T01:10:06;2.70;;;1.52;;
30934;SDS011;51033;42.648;23.292;2022-08-21T01:12:32;2.42;;;1.60;;
30934;SDS011;51033;42.648;23.292;2022-08-21T01:14:59;5.25;;;2.20;;
30934;SDS011;51033;42.648;23.292;2022-08-21T01:17:29;4.38;;;2.00;;
30934;SDS011;51033;42.648;23.292;2022-08-21T01:19:59;4.45;;;1.80;;
30934;SDS011;51033;42.648;23.292;2022-08-21T01:22:26;2.53;;;1.65;;
30934;SDS011;51033;42.648;23.292;2022-08-21T01:24:52;2.55;;;1.52;;
30934;SDS011;51033;42.648;23.292;2022-08-21T01:27:17;7.43;;;2.00;;
30934;SDS011;51033;42.648;23.292;2022-08-21T01:29:48;6.85;;;2.17;;
30934;SDS011;51033;42.648;23.292;2022-08-21T01:32:19;3.00;;;1.45;;
30934;SDS011;51033;42.648;23.292;2022-08-21T01:34:46;6.90;;;1.80;;
30934;SDS011;51033;42.648;23.292;2022-08-21T01:37:13;5.53;;;2.03;;
30934;SDS011;51033;42.648;23.292;2022-08-21T01:39:41;10.38;;;1.70;;
30934;SDS011;51033;42.648;23.292;2022-08-21T01:42:07;2.90;;;1.50;;
30934;SDS011;51033;42.648;23.292;2022-08-21T01:44:32;3.03;;;1.90;;
30934;SDS011;51033;42.648;23.292;2022-08-21T01:46:59;14.02;;;2.13;;
30934;SDS011;51033;42.648;23.292;2022-08-21T01:49:28;4.50;;;1.80;;
30934;SDS011;51033;42.648;23.292;2022-08-21T01:51:54;4.78;;;1.77;;
30934;SDS011;51033;42.648;23.292;2022-08-21T01:54:19;7.68;;;2.05;;
30934;SDS011;51033;42.648;23.292;2022-08-21T01:56:46;5.10;;;1.88;;
30934;SDS011;51033;42.648;23.292;2022-08-21T01:59:14;3.08;;;1.83;;
30934;SDS011;51033;42.648;23.292;2022-08-21T02:01:40;5.45;;;2.45;;
30934;SDS011;51033;42.648;23.292;2022-08-21T02:04:06;2.50;;;1.55;;
30934;SDS011;51033;42.648;23.292;2022-08-21T02:06:34;3.50;;;1.77;;
30934;SDS011;51033;42.648;23.292;2022-08-21T02:09:00;3.92;;;1.70;;
30934;SDS011;51033;42.648;23.292;2022-08-21T02:11:28;3.47;;;1.80;;
30934;SDS011;51033;42.648;23.292;2022-08-21T02:13:54;4.35;;;1.90;;
30934;SDS011;51033;42.648;23.292;2022-08-21T02:16:22;6.38;;;2.13;;
30934;SDS011;51033;42.648;23.292;2022-08-21T02:18:47;3.22;;;1.70;;
30934;SDS011;51033;42.648;23.292;2022-08-21T02:21:13;6.65;;;1.65;;
30934;SDS011;51033;42.648;23.292;2022-08-21T02:23:38;5.60;;;1.98;;
30934;SDS011;51033;42.648;23.292;2022-08-21T02:26:05;4.60;;;1.60;;
30934;SDS011;51033;42.648;23.292;2022-08-21T02:28:32;3.50;;;1.98;;
30934;SDS011;51033;42.648;23.292;2022-08-21T02:30:58;3.95;;;2.00;;
30934;SDS011;51033;42.648;23.292;2022-08-21T02:33:25;6.68;;;2.20;;
30934;SDS011;51033;42.648;23.292;2022-08-21T02:35:51;4.55;;;1.90;;
30934;SDS011;51033;42.648;23.292;2022-08-21T02:38:20;5.32;;;1.75;;
30934;SDS011;51033;42.648;23.292;2022-08-21T02:40:48;4.00;;;1.67;;
30934;SDS011;51033;42.648;23.292;2022-08-21T02:43:15;3.78;;;2.25;;
30934;SDS011;51033;42.648;23.292;2022-08-21T02:45:43;5.55;;;1.80;;
30934;SDS011;51033;42.648;23.292;2022-08-21T02:48:10;6.10;;;2.28;;
30934;SDS011;51033;42.648;23.292;2022-08-21T02:50:40;6.18;;;2.13;;
30934;SDS011;51033;42.648;23.292;2022-08-21T02:53:10;5.32;;;2.30;;
30934;SDS011;51033;42.648;23.292;2022-08-21T02:55:41;3.20;;;2.55;;
30934;SDS011;51033;42.648;23.292;2022-08-21T02:58:08;5.30;;;1.90;;
30934;SDS011;51033;42.648;23.292;2022-08-21T03:00:36;7.97;;;2.05;;
30934;SDS011;51033;42.648;23.292;2022-08-21T03:03:05;3.63;;;1.42;;
30934;SDS011;51033;42.648;23.292;2022-08-21T03:05:32;5.72;;;2.22;;
30934;SDS011;51033;42.648;23.292;2022-08-21T03:08:00;3.13;;;1.67;;
30934;SDS011;51033;42.648;23.292;2022-08-21T03:10:28;4.97;;;1.90;;
30934;SDS011;51033;42.648;23.292;2022-08-21T03:12:56;2.92;;;1.70;;
30934;SDS011;51033;42.648;23.292;2022-08-21T03:15:22;4.97;;;1.80;;
30934;SDS011;51033;42.648;23.292;2022-08-21T03:17:58;6.18;;;2.25;;
30934;SDS011;51033;42.648;23.292;2022-08-21T03:22:50;6.25;;;1.90;;
30934;SDS011;51033;42.648;23.292;2022-08-21T03:25:17;4.47;;;1.85;;
30934;SDS011;51033;42.648;23.292;2022-08-21T03:27:43;6.53;;;1.65;;
30934;SDS011;51033;42.648;23.292;2022-08-21T03:30:09;2.75;;;1.40;;
30934;SDS011;51033;42.648;23.292;2022-08-21T03:32:36;3.70;;;1.23;;
30934;SDS011;51033;42.648;23.292;2022-08-21T03:35:02;1.95;;;1.30;;
30934;SDS011;51033;42.648;23.292;2022-08-21T03:37:29;2.80;;;1.45;;
30934;SDS011;51033;42.648;23.292;2022-08-21T03:39:55;4.28;;;1.33;;
30934;SDS011;51033;42.648;23.292;2022-08-21T03:42:21;1.77;;;1.40;;
30934;SDS011;51033;42.648;23.292;2022-08-21T03:44:49;2.25;;;1.40;;
30934;SDS011;51033;42.648;23.292;2022-08-21T03:47:16;4.45;;;1.40;;
30934;SDS011;51033;42.648;23.292;2022-08-21T03:49:41;3.70;;;1.52;;
30934;SDS011;51033;42.648;23.292;2022-08-21T03:52:08;4.93;;;1.50;;
30934;SDS011;51033;42.648;23.292;2022-08-21T03:54:34;7.22;;;1.27;;
30934;SDS011;51033;42.648;23.292;2022-08-21T03:56:59;2.45;;;1.00;;
30934;SDS011;51033;42.648;23.292;2022-08-21T03:59:25;5.50;;;1.75;;
30934;SDS011;51033;42.648;23.292;2022-08-21T04:01:54;3.53;;;1.35;;
30934;SDS011;51033;42.648;23.292;2022-08-21T04:04:24;2.17;;;1.63;;
30934;SDS011;51033;42.648;23.292;2022-08-21T04:06:50;4.07;;;1.75;;
30934;SDS011;51033;42.648;23.292;2022-08-21T04:09:16;3.05;;;1.27;;
30934;SDS011;51033;42.648;23.292;2022-08-21T04:11:42;5.57;;;1.92;;
30934;SDS011;51033;42.648;23.292;2022-08-21T04:14:08;5.60;;;1.60;;
30934;SDS011;51033;42.648;23.292;2022-08-21T04:16:34;6.15;;;1.73;;
30934;SDS011;51033;42.648;23.292;2022-08-21T04:18:59;3.10;;;1.58;;
30934;SDS011;51033;42.648;23.292;2022-08-21T04:21:25;6.13;;;2.47;;
30934;SDS011;51033;42.648;23.292;2022-08-21T04:23:50;6.28;;;1.90;;
30934;SDS011;51033;42.648;23.292;2022-08-21T04:26:16;4.40;;;1.80;;
30934;SDS011;51033;42.648;23.292;2022-08-21T04:28:42;5.05;;;1.90;;
30934;SDS011;51033;42.648;23.292;2022-08-21T04:31:09;4.90;;;2.05;;
30934;SDS011;51033;42.648;23.292;2022-08-21T04:33:35;5.60;;;1.67;;
30934;SDS011;51033;42.648;23.292;2022-08-21T04:36:01;3.13;;;1.95;;
30934;SDS011;51033;42.648;23.292;2022-08-21T04:38:33;6.25;;;1.75;;
30934;SDS011;51033;42.648;23.292;2022-08-21T04:41:01;4.10;;;1.95;;
30934;SDS011;51033;42.648;23.292;2022-08-21T04:43:31;3.70;;;2.30;;
30934;SDS011;51033;42.648;23.292;2022-08-21T04:45:57;2.40;;;1.73;;
30934;SDS011;51033;42.648;23.292;2022-08-21T04:48:25;4.15;;;2.13;;
30934;SDS011;51033;42.648;23.292;2022-08-21T04:53:37;3.47;;;2.25;;
30934;SDS011;51033;42.648;23.292;2022-08-21T04:56:10;3.33;;;2.35;;
30934;SDS011;51033;42.648;23.292;2022-08-21T04:58:44;5.18;;;2.35;;
30934;SDS011;51033;42.648;23.292;2022-08-21T05:01:15;4.72;;;2.25;;
30934;SDS011;51033;42.648;23.292;2022-08-21T05:03:44;12.20;;;2.83;;
30934;SDS011;51033;42.648;23.292;2022-08-21T05:06:10;5.90;;;2.90;;
30934;SDS011;51033;42.648;23.292;2022-08-21T05:08:38;5.75;;;2.80;;
30934;SDS011;51033;42.648;23.292;2022-08-21T05:11:05;2.97;;;2.03;;
30934;SDS011;51033;42.648;23.292;2022-08-21T05:13:31;4.18;;;2.10;;
30934;SDS011;51033;42.648;23.292;2022-08-21T05:15:59;7.22;;;3.17;;
30934;SDS011;51033;42.648;23.292;2022-08-21T05:18:25;6.00;;;2.78;;
30934;SDS011;51033;42.648;23.292;2022-08-21T05:20:53;7.95;;;2.83;;
30934;SDS011;51033;42.648;23.292;2022-08-21T05:23:19;10.52;;;3.78;;
30934;SDS011;51033;42.648;23.292;2022-08-21T05:25:46;4.25;;;2.75;;
30934;SDS011;51033;42.648;23.292;2022-08-21T05:28:12;6.15;;;3.08;;
30934;SDS011;51033;42.648;23.292;2022-08-21T05:30:38;6.07;;;3.47;;
30934;SDS011;51033;42.648;23.292;2022-08-21T05:33:04;5.13;;;2.70;;
30934;SDS011;51033;42.648;23.292;2022-08-21T05:35:31;5.03;;;2.75;;
30934;SDS011;51033;42.648;23.292;2022-08-21T05:37:58;3.40;;;2.75;;
30934;SDS011;51033;42.648;23.292;2022-08-21T05:40:25;9.23;;;3.58;;
30934;SDS011;51033;42.648;23.292;2022-08-21T05:42:51;8.30;;;2.90;;
30934;SDS011;51033;42.648;23.292;2022-08-21T05:45:18;7.63;;;2.97;;
30934;SDS011;51033;42.648;23.292;2022-08-21T05:47:44;10.95;;;3.17;;
30934;SDS011;51033;42.648;23.292;2022-08-21T05:50:10;7.35;;;2.90;;
30934;SDS011;51033;42.648;23.292;2022-08-21T05:52:35;5.65;;;2.95;;
30934;SDS011;51033;42.648;23.292;2022-08-21T05:55:01;5.22;;;2.53;;
30934;SDS011;51033;42.648;23.292;2022-08-21T05:57:26;4.53;;;2.92;;
30934;SDS011;51033;42.648;23.292;2022-08-21T05:59:52;6.18;;;2.33;;
30934;SDS011;51033;42.648;23.292;2022-08-21T06:02:18;7.68;;;3.92;;
30934;SDS011;51033;42.648;23.292;2022-08-21T06:04:44;8.40;;;3.20;;
30934;SDS011;51033;42.648;23.292;2022-08-21T06:07:10;3.90;;;2.78;;
30934;SDS011;51033;42.648;23.292;2022-08-21T06:09:36;9.30;;;3.25;;
30934;SDS011;51033;42.648;23.292;2022-08-21T06:12:09;5.28;;;3.72;;
30934;SDS011;51033;42.648;23.292;2022-08-21T06:14:38;6.00;;;3.80;;
30934;SDS011;51033;42.648;23.292;2022-08-21T06:17:09;6.95;;;3.08;;
30934;SDS011;51033;42.648;23.292;2022-08-21T06:19:36;5.57;;;2.65;;
30934;SDS011;51033;42.648;23.292;2022-08-21T06:22:03;5.95;;;3.10;;
30934;SDS011;51033;42.648;23.292;2022-08-21T06:24:32;4.95;;;3.42;;
30934;SDS011;51033;42.648;23.292;2022-08-21T06:26:57;7.95;;;2.58;;
30934;SDS011;51033;42.648;23.292;2022-08-21T06:29:28;7.10;;;4.53;;
30934;SDS011;51033;42.648;23.292;2022-08-21T06:31:54;9.25;;;3.97;;
30934;SDS011;51033;42.648;23.292;2022-08-21T06:34:19;5.88;;;4.07;;
30934;SDS011;51033;42.648;23.292;2022-08-21T06:36:45;5.88;;;4.43;;
30934;SDS011;51033;42.648;23.292;2022-08-21T06:39:10;9.40;;;4.75;;
30934;SDS011;51033;42.648;23.292;2022-08-21T06:41:37;10.13;;;3.80;;
30934;SDS011;51033;42.648;23.292;2022-08-21T06:44:06;7.93;;;4.53;;
30934;SDS011;51033;42.648;23.292;2022-08-21T06:46:35;8.10;;;3.95;;
30934;SDS011;51033;42.648;23.292;2022-08-21T06:49:03;10.25;;;3.72;;
30934;SDS011;51033;42.648;23.292;2022-08-21T06:51:36;8.55;;;3.75;;
30934;SDS011;51033;42.648;23.292;2022-08-21T06:54:05;6.65;;;3.83;;
30934;SDS011;51033;42.648;23.292;2022-08-21T06:56:34;8.82;;;4.90;;
30934;SDS011;51033;42.648;23.292;2022-08-21T06:59:04;9.10;;;5.35;;
30934;SDS011;51033;42.648;23.292;2022-08-21T07:01:34;6.88;;;3.58;;
30934;SDS011;51033;42.648;23.292;2022-08-21T07:03:59;8.60;;;4.03;;
30934;SDS011;51033;42.648;23.292;2022-08-21T07:06:25;8.38;;;4.03;;
30934;SDS011;51033;42.648;23.292;2022-08-21T07:08:50;8.07;;;4.38;;
30934;SDS011;51033;42.648;23.292;2022-08-21T07:11:20;8.98;;;4.75;;
30934;SDS011;51033;42.648;23.292;2022-08-21T07:13:48;8.65;;;4.70;;
30934;SDS011;51033;42.648;23.292;2022-08-21T07:16:16;9.23;;;4.65;;
30934;SDS011;51033;42.648;23.292;2022-08-21T07:18:41;8.57;;;5.40;;
30934;SDS011;51033;42.648;23.292;2022-08-21T07:21:07;6.28;;;3.05;;
30934;SDS011;51033;42.648;23.292;2022-08-21T07:23:34;7.22;;;3.40;;
30934;SDS011;51033;42.648;23.292;2022-08-21T07:26:04;8.13;;;3.70;;
30934;SDS011;51033;42.648;23.292;2022-08-21T07:28:30;4.85;;;3.30;;
30934;SDS011;51033;42.648;23.292;2022-08-21T07:30:56;6.80;;;3.53;;
30934;SDS011;51033;42.648;23.292;2022-08-21T07:33:24;6.65;;;3.03;;
30934;SDS011;51033;42.648;23.292;2022-08-21T07:35:51;7.00;;;3.97;;
30934;SDS011;51033;42.648;23.292;2022-08-21T07:38:17;10.00;;;3.55;;
30934;SDS011;51033;42.648;23.292;2022-08-21T07:40:47;6.45;;;3.20;;
30934;SDS011;51033;42.648;23.292;2022-08-21T07:43:15;7.28;;;3.10;;
30934;SDS011;51033;42.648;23.292;2022-08-21T07:45:44;5.97;;;3.42;;
30934;SDS011;51033;42.648;23.292;2022-08-21T07:48:10;4.90;;;3.10;;
30934;SDS011;51033;42.648;23.292;2022-08-21T07:50:36;6.32;;;4.60;;
30934;SDS011;51033;42.648;23.292;2022-08-21T07:53:01;8.70;;;3.25;;
30934;SDS011;51033;42.648;23.292;2022-08-21T07:55:29;6.22;;;3.53;;
30934;SDS011;51033;42.648;23.292;2022-08-21T07:57:55;7.20;;;3.28;;
30934;SDS011;51033;42.648;23.292;2022-08-21T08:00:23;5.05;;;4.18;;
30934;SDS011;51033;42.648;23.292;2022-08-21T08:02:50;6.80;;;3.25;;
30934;SDS011;51033;42.648;23.292;2022-08-21T08:05:17;9.77;;;3.40;;
30934;SDS011;51033;42.648;23.292;2022-08-21T08:07:46;6.65;;;4.38;;
30934;SDS011;51033;42.648;23.292;2022-08-21T08:10:14;7.72;;;3.67;;
30934;SDS011;51033;42.648;23.292;2022-08-21T08:12:41;5.10;;;3.33;;
30934;SDS011;51033;42.648;23.292;2022-08-21T08:15:10;7.65;;;4.13;;
30934;SDS011;51033;42.648;23.292;2022-08-21T08:17:38;7.68;;;3.95;;
30934;SDS011;51033;42.648;23.292;2022-08-21T08:20:07;10.15;;;4.10;;
30934;SDS011;51033;42.648;23.292;2022-08-21T08:22:35;9.25;;;3.70;;
30934;SDS011;51033;42.648;23.292;2022-08-21T08:25:01;14.13;;;4.75;;
30934;SDS011;51033;42.648;23.292;2022-08-21T08:27:30;8.60;;;4.55;;
30934;SDS011;51033;42.648;23.292;2022-08-21T08:29:56;7.97;;;3.78;;
30934;SDS011;51033;42.648;23.292;2022-08-21T08:32:22;10.00;;;3.95;;
30934;SDS011;51033;42.648;23.292;2022-08-21T08:34:48;8.52;;;4.15;;
30934;SDS011;51033;42.648;23.292;2022-08-21T08:37:16;9.02;;;5.68;;
30934;SDS011;51033;42.648;23.292;2022-08-21T08:39:42;6.32;;;4.30;;
30934;SDS011;51033;42.648;23.292;2022-08-21T08:42:13;8.90;;;4.93;;
30934;SDS011;51033;42.648;23.292;2022-08-21T08:44:45;6.85;;;5.20;;
30934;SDS011;51033;42.648;23.292;2022-08-21T08:47:15;7.05;;;4.65;;
30934;SDS011;51033;42.648;23.292;2022-08-21T08:49:46;7.82;;;4.57;;
30934;SDS011;51033;42.648;23.292;2022-08-21T08:52:20;11.05;;;4.00;;
30934;SDS011;51033;42.648;23.292;2022-08-21T08:57:34;7.78;;;4.07;;
30934;SDS011;51033;42.648;23.292;2022-08-21T09:00:06;4.80;;;2.90;;
30934;SDS011;51033;42.648;23.292;2022-08-21T09:02:38;5.80;;;3.85;;
30934;SDS011;51033;42.648;23.292;2022-08-21T09:05:04;10.27;;;3.75;;
30934;SDS011;51033;42.648;23.292;2022-08-21T09:07:44;8.00;;;4.05;;
30934;SDS011;51033;42.648;23.292;2022-08-21T09:10:38;8.88;;;3.97;;
30934;SDS011;51033;42.648;23.292;2022-08-21T09:13:27;8.63;;;4.60;;
30934;SDS011;51033;42.648;23.292;2022-08-21T09:21:43;5.90;;;3.25;;
30934;SDS011;51033;42.648;23.292;2022-08-21T09:27:17;7.65;;;3.65;;
30934;SDS011;51033;42.648;23.292;2022-08-21T09:29:47;10.80;;;4.30;;
30934;SDS011;51033;42.648;23.292;2022-08-21T09:32:18;10.27;;;3.87;;
30934;SDS011;51033;42.648;23.292;2022-08-21T09:37:32;6.68;;;3.97;;
30934;SDS011;51033;42.648;23.292;2022-08-21T09:40:00;8.75;;;5.05;;
30934;SDS011;51033;42.648;23.292;2022-08-21T09:42:29;5.28;;;3.40;;
30934;SDS011;51033;42.648;23.292;2022-08-21T09:45:06;5.15;;;3.05;;
30934;SDS011;51033;42.648;23.292;2022-08-21T09:47:35;5.55;;;3.70;;
30934;SDS011;51033;42.648;23.292;2022-08-21T09:50:09;9.02;;;4.38;;
30934;SDS011;51033;42.648;23.292;2022-08-21T09:52:42;6.03;;;3.45;;
30934;SDS011;51033;42.648;23.292;2022-08-21T09:55:18;5.60;;;3.38;;
30934;SDS011;51033;42.648;23.292;2022-08-21T09:58:15;7.57;;;3.67;;
30934;SDS011;51033;42.648;23.292;2022-08-21T10:00:42;5.20;;;3.67;;
30934;SDS011;51033;42.648;23.292;2022-08-21T10:05:59;5.00;;;3.13;;
30934;SDS011;51033;42.648;23.292;2022-08-21T10:08:30;9.82;;;3.50;;
30934;SDS011;51033;42.648;23.292;2022-08-21T10:10:57;5.60;;;2.95;;
30934;SDS011;51033;42.648;23.292;2022-08-21T10:19:05;6.88;;;4.30;;
30934;SDS011;51033;42.648;23.292;2022-08-21T10:27:24;8.02;;;3.53;;
30934;SDS011;51033;42.648;23.292;2022-08-21T10:30:09;6.45;;;3.28;;
30934;SDS011;51033;42.648;23.292;2022-08-21T10:35:35;6.85;;;4.10;;
30934;SDS011;51033;42.648;23.292;2022-08-21T10:41:21;6.13;;;3.65;;
30934;SDS011;51033;42.648;23.292;2022-08-21T10:57:12;7.07;;;4.47;;
30934;SDS011;51033;42.648;23.292;2022-08-21T10:59:48;8.27;;;4.10;;
30934;SDS011;51033;42.648;23.292;2022-08-21T11:02:26;5.50;;;3.58;;
30934;SDS011;51033;42.648;23.292;2022-08-21T11:09:57;3.97;;;2.10;;
30934;SDS011;51033;42.648;23.292;2022-08-21T11:12:38;5.68;;;3.20;;
30934;SDS011;51033;42.648;23.292;2022-08-21T11:23:48;4.30;;;3.45;;
30934;SDS011;51033;42.648;23.292;2022-08-21T11:26:30;4.38;;;3.35;;
30934;SDS011;51033;42.648;23.292;2022-08-21T11:29:16;7.63;;;3.08;;
30934;SDS011;51033;42.648;23.292;2022-08-21T11:37:01;8.15;;;4.05;;
30934;SDS011;51033;42.648;23.292;2022-08-21T11:42:24;5.60;;;3.15;;
30934;SDS011;51033;42.648;23.292;2022-08-21T11:50:39;6.65;;;3.22;;
30934;SDS011;51033;42.648;23.292;2022-08-21T11:56:17;3.10;;;2.80;;
30934;SDS011;51033;42.648;23.292;2022-08-21T11:58:50;4.38;;;3.03;;
30934;SDS011;51033;42.648;23.292;2022-08-21T12:01:21;5.25;;;3.10;;
30934;SDS011;51033;42.648;23.292;2022-08-21T12:03:56;5.60;;;3.13;;
30934;SDS011;51033;42.648;23.292;2022-08-21T12:06:32;2.95;;;2.53;;
30934;SDS011;51033;42.648;23.292;2022-08-21T12:09:08;3.97;;;3.38;;
30934;SDS011;51033;42.648;23.292;2022-08-21T12:14:48;6.50;;;2.45;;
30934;SDS011;51033;42.648;23.292;2022-08-21T12:17:19;5.32;;;3.53;;
30934;SDS011;51033;42.648;23.292;2022-08-21T12:19:57;5.07;;;3.20;;
30934;SDS011;51033;42.648;23.292;2022-08-21T12:22:37;3.53;;;2.40;;
30934;SDS011;51033;42.648;23.292;2022-08-21T12:25:06;3.97;;;3.13;;
30934;SDS011;51033;42.648;23.292;2022-08-21T12:27:44;3.15;;;2.30;;
30934;SDS011;51033;42.648;23.292;2022-08-21T12:35:35;4.75;;;2.28;;
30934;SDS011;51033;42.648;23.292;2022-08-21T12:38:14;6.25;;;2.65;;
30934;SDS011;51033;42.648;23.292;2022-08-21T12:40:46;3.85;;;2.42;;
30934;SDS011;51033;42.648;23.292;2022-08-21T12:43:18;10.63;;;2.70;;
30934;SDS011;51033;42.648;23.292;2022-08-21T12:45:49;7.30;;;3.17;;
30934;SDS011;51033;42.648;23.292;2022-08-21T12:51:16;9.55;;;4.53;;
30934;SDS011;51033;42.648;23.292;2022-08-21T12:53:48;5.13;;;2.75;;
30934;SDS011;51033;42.648;23.292;2022-08-21T12:56:19;4.60;;;2.78;;
30934;SDS011;51033;42.648;23.292;2022-08-21T12:58:48;6.90;;;3.38;;
30934;SDS011;51033;42.648;23.292;2022-08-21T13:01:23;7.60;;;3.10;;
30934;SDS011;51033;42.648;23.292;2022-08-21T13:04:04;7.13;;;2.78;;
30934;SDS011;51033;42.648;23.292;2022-08-21T13:06:38;6.32;;;2.75;;
30934;SDS011;51033;42.648;23.292;2022-08-21T13:09:16;10.63;;;3.22;;
30934;SDS011;51033;42.648;23.292;2022-08-21T13:11:45;5.57;;;2.97;;
30934;SDS011;51033;42.648;23.292;2022-08-21T13:16:55;6.53;;;3.20;;
30934;SDS011;51033;42.648;23.292;2022-08-21T13:19:21;6.53;;;2.97;;
30934;SDS011;51033;42.648;23.292;2022-08-21T13:21:48;6.32;;;2.83;;
30934;SDS011;51033;42.648;23.292;2022-08-21T13:24:28;3.97;;;2.83;;
30934;SDS011;51033;42.648;23.292;2022-08-21T13:26:59;6.53;;;3.70;;
30934;SDS011;51033;42.648;23.292;2022-08-21T13:29:29;7.60;;;3.72;;
30934;SDS011;51033;42.648;23.292;2022-08-21T13:31:58;5.22;;;3.13;;
30934;SDS011;51033;42.648;23.292;2022-08-21T13:34:29;10.73;;;4.00;;
30934;SDS011;51033;42.648;23.292;2022-08-21T13:36:59;5.18;;;2.83;;
30934;SDS011;51033;42.648;23.292;2022-08-21T13:39:33;9.23;;;3.28;;
30934;SDS011;51033;42.648;23.292;2022-08-21T13:42:00;6.03;;;2.55;;
30934;SDS011;51033;42.648;23.292;2022-08-21T13:46:55;4.05;;;2.88;;
30934;SDS011;51033;42.648;23.292;2022-08-21T13:49:33;5.70;;;3.22;;
30934;SDS011;51033;42.648;23.292;2022-08-21T13:52:02;7.57;;;3.63;;
30934;SDS011;51033;42.648;23.292;2022-08-21T13:54:41;6.35;;;3.05;;
30934;SDS011;51033;42.648;23.292;2022-08-21T13:57:16;5.88;;;3.80;;
30934;SDS011;51033;42.648;23.292;2022-08-21T13:59:42;4.72;;;2.78;;
30934;SDS011;51033;42.648;23.292;2022-08-21T14:04:55;7.03;;;3.47;;
30934;SDS011;51033;42.648;23.292;2022-08-21T14:07:31;5.47;;;3.58;;
30934;SDS011;51033;42.648;23.292;2022-08-21T14:10:11;8.70;;;4.00;;
30934;SDS011;51033;42.648;23.292;2022-08-21T14:12:44;6.45;;;3.25;;
30934;SDS011;51033;42.648;23.292;2022-08-21T14:15:15;4.68;;;3.20;;
30934;SDS011;51033;42.648;23.292;2022-08-21T14:17:44;4.03;;;2.72;;
30934;SDS011;51033;42.648;23.292;2022-08-21T14:20:26;6.20;;;3.40;;
30934;SDS011;51033;42.648;23.292;2022-08-21T14:22:55;4.50;;;2.88;;
30934;SDS011;51033;42.648;23.292;2022-08-21T14:27:53;9.18;;;3.95;;
30934;SDS011;51033;42.648;23.292;2022-08-21T14:32:54;6.32;;;4.07;;
30934;SDS011;51033;42.648;23.292;2022-08-21T14:35:19;6.13;;;3.92;;
30934;SDS011;51033;42.648;23.292;2022-08-21T14:37:46;5.20;;;3.58;;
30934;SDS011;51033;42.648;23.292;2022-08-21T14:40:15;4.38;;;3.83;;
30934;SDS011;51033;42.648;23.292;2022-08-21T14:42:42;6.80;;;3.85;;
30934;SDS011;51033;42.648;23.292;2022-08-21T14:45:29;5.03;;;3.58;;
30934;SDS011;51033;42.648;23.292;2022-08-21T14:47:56;7.03;;;3.92;;
30934;SDS011;51033;42.648;23.292;2022-08-21T14:50:23;5.88;;;3.67;;
30934;SDS011;51033;42.648;23.292;2022-08-21T14:52:49;5.55;;;4.18;;
30934;SDS011;51033;42.648;23.292;2022-08-21T14:55:15;9.93;;;3.83;;
30934;SDS011;51033;42.648;23.292;2022-08-21T14:57:46;7.32;;;3.50;;
30934;SDS011;51033;42.648;23.292;2022-08-21T15:00:17;5.53;;;3.75;;
30934;SDS011;51033;42.648;23.292;2022-08-21T15:02:46;7.28;;;3.83;;
30934;SDS011;51033;42.648;23.292;2022-08-21T15:05:15;10.05;;;3.72;;
30934;SDS011;51033;42.648;23.292;2022-08-21T15:07:41;6.18;;;3.63;;
30934;SDS011;51033;42.648;23.292;2022-08-21T15:10:10;6.95;;;4.10;;
30934;SDS011;51033;42.648;23.292;2022-08-21T15:12:37;7.63;;;4.80;;
30934;SDS011;51033;42.648;23.292;2022-08-21T15:15:04;6.28;;;4.20;;
30934;SDS011;51033;42.648;23.292;2022-08-21T15:17:30;5.18;;;3.63;;
30934;SDS011;51033;42.648;23.292;2022-08-21T15:19:56;9.38;;;4.65;;
30934;SDS011;51033;42.648;23.292;2022-08-21T15:22:22;7.05;;;4.15;;
30934;SDS011;51033;42.648;23.292;2022-08-21T15:24:47;6.97;;;4.22;;
30934;SDS011;51033;42.648;23.292;2022-08-21T15:27:13;5.15;;;3.80;;
30934;SDS011;51033;42.648;23.292;2022-08-21T15:29:41;4.68;;;3.65;;
30934;SDS011;51033;42.648;23.292;2022-08-21T15:32:20;3.67;;;3.03;;
30934;SDS011;51033;42.648;23.292;2022-08-21T15:34:50;5.68;;;3.60;;
30934;SDS011;51033;42.648;23.292;2022-08-21T15:37:16;4.78;;;3.50;;
30934;SDS011;51033;42.648;23.292;2022-08-21T15:39:42;5.93;;;4.05;;
30934;SDS011;51033;42.648;23.292;2022-08-21T15:42:09;8.00;;;3.95;;
30934;SDS011;51033;42.648;23.292;2022-08-21T15:44:36;8.25;;;4.18;;
30934;SDS011;51033;42.648;23.292;2022-08-21T15:47:02;6.75;;;3.63;;
30934;SDS011;51033;42.648;23.292;2022-08-21T15:49:39;4.57;;;3.88;;
30934;SDS011;51033;42.648;23.292;2022-08-21T15:52:09;7.30;;;3.55;;
30934;SDS011;51033;42.648;23.292;2022-08-21T15:54:35;5.70;;;4.55;;
30934;SDS011;51033;42.648;23.292;2022-08-21T15:57:00;6.65;;;4.00;;
30934;SDS011;51033;42.648;23.292;2022-08-21T15:59:26;7.32;;;3.80;;
30934;SDS011;51033;42.648;23.292;2022-08-21T16:01:52;6.75;;;4.28;;
30934;SDS011;51033;42.648;23.292;2022-08-21T16:04:23;7.20;;;3.85;;
30934;SDS011;51033;42.648;23.292;2022-08-21T16:06:54;7.93;;;4.33;;
30934;SDS011;51033;42.648;23.292;2022-08-21T16:09:22;6.53;;;4.20;;
30934;SDS011;51033;42.648;23.292;2022-08-21T16:11:47;7.75;;;4.38;;
30934;SDS011;51033;42.648;23.292;2022-08-21T16:14:14;7.07;;;4.03;;
30934;SDS011;51033;42.648;23.292;2022-08-21T16:16:44;9.38;;;4.15;;
30934;SDS011;51033;42.648;23.292;2022-08-21T16:19:20;4.65;;;3.22;;
30934;SDS011;51033;42.648;23.292;2022-08-21T16:21:46;4.60;;;3.42;;
30934;SDS011;51033;42.648;23.292;2022-08-21T16:24:11;6.93;;;4.13;;
30934;SDS011;51033;42.648;23.292;2022-08-21T16:26:37;7.95;;;3.55;;
30934;SDS011;51033;42.648;23.292;2022-08-21T16:29:09;7.00;;;3.75;;
30934;SDS011;51033;42.648;23.292;2022-08-21T16:31:35;8.27;;;3.70;;